Time;durP1;ratioP1;P1;durP2;ratioP2;P2;SDS_P1;SDS_P2;PMS_P1;PMS_P2;Temp;Humidity;BMP_temperature;BMP_pressure;BME280_temperature;BME280_humidity;BME280_pressure;Samples;Min_cycle;Max_cycle;Signal;HPM_P1;HPM_P2
2021/10/10 00:01:17;;;;;;;54.20;35.00;;;;;;;0.64;77.92;102273.25;93994;1196;94426;-69
2021/10/10 00:03:25;;;;;;;58.40;34.70;;;;;;;0.61;78.04;102274.64;94015;1196;80365;-72
2021/10/10 00:05:32;;;;;;;58.20;36.60;;;;;;;0.53;78.01;102271.30;94047;1195;81450;-67
2021/10/10 00:07:41;;;;;;;53.10;34.50;;;;;;;0.50;78.06;102270.42;94032;1196;97412;-68
2021/10/10 00:09:49;;;;;;;56.40;33.90;;;;;;;0.47;78.09;102270.17;94108;1195;86451;-70
2021/10/10 00:11:57;;;;;;;62.20;35.80;;;;;;;0.48;77.97;102269.23;94024;1195;93206;-68
2021/10/10 00:14:05;;;;;;;57.60;35.80;;;;;;;0.50;78.11;102271.13;93852;1197;77572;-69
2021/10/10 00:16:13;;;;;;;60.80;35.10;;;;;;;0.47;78.11;102266.83;93725;1196;80743;-67
2021/10/10 00:18:20;;;;;;;58.70;36.50;;;;;;;0.44;78.13;102264.67;94027;1197;96120;-65
2021/10/10 00:20:29;;;;;;;55.30;36.40;;;;;;;0.43;78.16;102261.70;94039;1195;88119;-66
2021/10/10 00:22:36;;;;;;;60.30;38.30;;;;;;;0.44;78.14;102265.05;93751;1196;93493;-69
2021/10/10 00:24:44;;;;;;;60.10;37.00;;;;;;;0.44;78.30;102264.51;94045;1196;78856;-69
2021/10/10 00:26:52;;;;;;;58.70;37.60;;;;;;;0.44;78.19;102262.37;94027;1196;80658;-70
2021/10/10 00:28:59;;;;;;;58.70;38.30;;;;;;;0.44;78.33;102262.89;94043;1195;97374;-66
2021/10/10 00:31:10;;;;;;;62.10;38.10;;;;;;;0.43;78.48;102262.81;94019;1195;87341;-69
2021/10/10 00:33:17;;;;;;;65.50;39.90;;;;;;;0.41;78.53;102263.41;93999;1196;94444;-68
2021/10/10 00:35:25;;;;;;;60.70;37.90;;;;;;;0.42;78.47;102259.65;94005;1195;78787;-69
2021/10/10 00:37:32;;;;;;;66.80;39.40;;;;;;;0.43;78.43;102262.63;94063;1195;82327;-69
2021/10/10 00:39:40;;;;;;;58.80;37.30;;;;;;;0.45;78.47;102260.19;94038;1195;98216;-69
2021/10/10 00:41:47;;;;;;;61.60;39.30;;;;;;;0.46;78.49;102261.92;94001;1195;88131;-68
2021/10/10 00:43:55;;;;;;;66.30;41.30;;;;;;;0.48;78.45;102261.10;94040;1196;93566;-69
2021/10/10 00:46:02;;;;;;;69.40;42.10;;;;;;;0.51;78.68;102258.83;93970;1196;79836;-68
2021/10/10 00:48:10;;;;;;;66.50;40.40;;;;;;;0.52;78.54;102261.10;94069;1196;81377;-68
2021/10/10 00:50:17;;;;;;;63.30;40.50;;;;;;;0.52;78.67;102254.36;94029;1195;98120;-68
2021/10/10 00:52:27;;;;;;;68.00;40.30;;;;;;;0.54;78.61;102254.93;94036;1195;87388;-67
2021/10/10 00:54:36;;;;;;;69.60;41.80;;;;;;;0.56;78.54;102252.54;94008;1196;94196;-64
2021/10/10 00:56:45;;;;;;;66.80;41.40;;;;;;;0.56;78.69;102247.40;94020;1195;79541;-68
2021/10/10 00:58:53;;;;;;;67.40;42.30;;;;;;;0.58;78.62;102249.57;94000;1196;82073;-66
2021/10/10 01:01:01;;;;;;;68.50;41.70;;;;;;;0.58;78.72;102248.52;94034;1196;98201;-63
2021/10/10 01:03:09;;;;;;;69.50;41.50;;;;;;;0.60;78.63;102247.33;94049;1195;88245;-65
2021/10/10 01:05:17;;;;;;;68.40;41.10;;;;;;;0.62;78.78;102247.98;94025;1195;94132;-68
2021/10/10 01:07:27;;;;;;;70.90;41.90;;;;;;;0.62;78.72;102244.97;94089;1195;80031;-69
2021/10/10 01:09:42;;;;;;;65.60;41.90;;;;;;;0.61;78.79;102246.24;94062;1195;81703;-69
2021/10/10 01:11:50;;;;;;;68.40;42.40;;;;;;;0.59;78.80;102246.70;94198;1195;96240;-68
2021/10/10 01:14:02;;;;;;;66.00;40.40;;;;;;;0.56;78.73;102243.83;94257;1196;87909;-69
2021/10/10 01:16:10;;;;;;;63.50;39.00;;;;;;;0.54;78.72;102244.33;94214;1195;94599;-68
2021/10/10 01:18:25;;;;;;;71.10;42.60;;;;;;;0.51;78.76;102247.30;94188;1195;78562;-69
2021/10/10 01:20:45;;;;;;;72.40;40.60;;;;;;;0.48;78.83;102242.15;94189;1195;80165;-69
2021/10/10 01:22:53;;;;;;;67.90;41.50;;;;;;;0.46;78.82;102244.54;94188;1196;97269;-70
2021/10/10 01:25:01;;;;;;;69.30;43.00;;;;;;;0.45;78.88;102243.34;94204;1195;86964;-70
2021/10/10 01:27:09;;;;;;;64.10;40.40;;;;;;;0.44;78.85;102241.85;94198;1196;95084;-70
2021/10/10 01:29:20;;;;;;;65.00;39.50;;;;;;;0.39;78.85;102244.55;94246;1196;77524;-73
2021/10/10 01:31:28;;;;;;;67.50;42.00;;;;;;;0.35;78.94;102236.64;94219;1197;81827;-67
2021/10/10 01:33:35;;;;;;;63.30;39.70;;;;;;;0.31;78.98;102235.95;94205;1195;97983;-68
2021/10/10 01:35:43;;;;;;;67.10;39.40;;;;;;;0.28;78.92;102235.91;94024;1195;87543;-68
2021/10/10 01:37:50;;;;;;;66.70;40.50;;;;;;;0.26;79.11;102234.64;94179;1196;92781;-68
2021/10/10 01:39:58;;;;;;;67.50;39.20;;;;;;;0.24;79.05;102231.20;94234;1196;79485;-69
2021/10/10 01:42:06;;;;;;;66.60;39.60;;;;;;;0.23;79.20;102234.96;94193;1197;82214;-70
2021/10/10 01:44:19;;;;;;;65.70;39.30;;;;;;;0.21;79.17;102233.65;94221;1196;97973;-71
2021/10/10 01:46:26;;;;;;;67.80;41.20;;;;;;;0.20;79.03;102234.56;94242;1196;88231;-69
2021/10/10 01:48:35;;;;;;;67.80;41.30;;;;;;;0.20;79.09;102232.11;94165;1195;93661;-69
2021/10/10 01:50:42;;;;;;;66.90;40.90;;;;;;;0.20;79.12;102229.62;94177;1196;78802;-69
2021/10/10 01:52:52;;;;;;;66.20;41.80;;;;;;;0.20;79.11;102230.17;94244;1195;81583;-70
2021/10/10 01:55:00;;;;;;;68.90;40.20;;;;;;;0.18;79.34;102226.39;94214;1195;98383;-68
2021/10/10 01:57:08;;;;;;;69.90;40.20;;;;;;;0.17;79.16;102226.96;94212;1196;87607;-69
2021/10/10 01:59:18;;;;;;;68.00;40.30;;;;;;;0.15;79.26;102225.96;94222;1195;92783;-69
2021/10/10 02:01:25;;;;;;;71.20;41.30;;;;;;;0.16;79.33;102228.42;94210;1196;79941;-69
2021/10/10 02:03:33;;;;;;;67.70;39.00;;;;;;;0.18;79.34;102224.08;94233;1195;80857;-70
2021/10/10 02:05:41;;;;;;;63.40;39.30;;;;;;;0.21;79.40;102223.21;94169;1195;98656;-69
2021/10/10 02:07:52;;;;;;;65.20;39.10;;;;;;;0.21;79.39;102224.80;94208;1195;87939;-69
2021/10/10 02:09:59;;;;;;;60.50;38.20;;;;;;;0.20;79.37;102222.18;94177;1196;92873;-68
2021/10/10 02:12:07;;;;;;;68.70;41.20;;;;;;;0.17;79.34;102221.26;94193;1196;80543;-69
2021/10/10 02:14:14;;;;;;;68.80;41.60;;;;;;;0.16;79.32;102220.46;94214;1195;82533;-66
2021/10/10 02:16:22;;;;;;;63.20;38.50;;;;;;;0.14;79.46;102221.23;94183;1195;95913;-67
2021/10/10 02:18:32;;;;;;;64.20;40.50;;;;;;;0.13;79.41;102218.48;94248;1195;88337;-66
2021/10/10 02:20:40;;;;;;;65.80;40.50;;;;;;;0.12;79.55;102218.86;94203;1195;93674;-68
2021/10/10 02:22:47;;;;;;;72.40;40.80;;;;;;;0.10;79.51;102218.63;94276;1195;80725;-67
2021/10/10 02:24:54;;;;;;;70.80;41.40;;;;;;;0.09;79.39;102216.56;94239;1196;81283;-69
2021/10/10 02:27:02;;;;;;;68.60;41.50;;;;;;;0.08;79.69;102215.36;94262;1195;96435;-67
2021/10/10 02:29:09;;;;;;;67.70;41.70;;;;;;;0.07;79.68;102212.41;94242;1195;87481;-67
2021/10/10 02:31:20;;;;;;;65.40;38.70;;;;;;;0.08;79.72;102213.78;94214;1195;93133;-67
2021/10/10 02:33:27;;;;;;;71.70;41.20;;;;;;;0.08;79.60;102211.64;94014;1195;78421;-67
2021/10/10 02:35:34;;;;;;;70.50;41.30;;;;;;;0.13;79.73;102211.73;94204;1195;81932;-68
2021/10/10 02:37:42;;;;;;;70.70;42.70;;;;;;;0.16;79.88;102210.71;94206;1197;98237;-69
2021/10/10 02:39:53;;;;;;;75.20;43.20;;;;;;;0.16;79.82;102211.77;94212;1195;87865;-67
2021/10/10 02:42:00;;;;;;;70.00;39.10;;;;;;;0.17;79.92;102207.29;94244;1195;93457;-67
2021/10/10 02:44:08;;;;;;;66.50;40.40;;;;;;;0.17;79.88;102204.98;94238;1195;78560;-66
2021/10/10 02:46:16;;;;;;;73.30;40.80;;;;;;;0.15;79.94;102206.52;94284;1196;81103;-68
2021/10/10 02:48:23;;;;;;;72.50;41.10;;;;;;;0.12;79.83;102205.23;94192;1194;98229;-68
2021/10/10 02:50:31;;;;;;;67.70;41.20;;;;;;;0.10;79.81;102202.69;94190;1197;88329;-66
2021/10/10 02:52:38;;;;;;;68.10;43.40;;;;;;;0.08;79.83;102202.09;94214;1195;95178;-66
2021/10/10 02:54:46;;;;;;;66.40;41.10;;;;;;;0.07;79.68;102201.78;94186;1196;78322;-67
2021/10/10 02:56:53;;;;;;;66.90;40.30;;;;;;;0.06;79.73;102201.83;94267;1196;80885;-68
2021/10/10 02:59:00;;;;;;;65.30;40.30;;;;;;;0.05;79.72;102200.83;94192;1194;99383;-70
2021/10/10 03:01:08;;;;;;;66.50;39.80;;;;;;;0.03;79.75;102199.30;94226;1195;86127;-67
2021/10/10 03:03:18;;;;;;;71.20;40.50;;;;;;;0.01;79.82;102198.54;94176;1194;94463;-67
2021/10/10 03:05:26;;;;;;;69.90;39.80;;;;;;;0.01;79.81;102192.88;94232;1195;79942;-67
2021/10/10 03:07:33;;;;;;;68.10;40.20;;;;;;;0.02;79.70;102195.31;94216;1195;82745;-67
2021/10/10 03:09:44;;;;;;;68.90;41.20;;;;;;;0.04;79.86;102191.13;94181;1196;98040;-66
2021/10/10 03:11:54;;;;;;;67.00;41.90;;;;;;;0.05;79.85;102194.30;94225;1195;88237;-69
2021/10/10 03:14:01;;;;;;;68.70;41.10;;;;;;;0.03;79.86;102192.95;94200;1194;93938;-69
2021/10/10 03:16:09;;;;;;;69.40;41.60;;;;;;;0.01;80.03;102193.39;94212;1195;80270;-66
2021/10/10 03:18:19;;;;;;;65.70;39.20;;;;;;;-0.00;79.75;102188.87;94286;1196;81742;-66
2021/10/10 03:20:27;;;;;;;68.70;38.10;;;;;;;0.03;79.96;102190.30;94291;1195;98171;-67
2021/10/10 03:22:38;;;;;;;60.30;40.50;;;;;;;0.08;79.90;102190.73;94298;1196;86620;-68
2021/10/10 03:24:45;;;;;;;62.50;38.00;;;;;;;0.07;80.05;102188.85;94235;1196;94946;-68
2021/10/10 03:26:52;;;;;;;64.10;40.60;;;;;;;0.05;80.12;102189.83;94220;1195;80744;-67
2021/10/10 03:29:00;;;;;;;66.70;38.60;;;;;;;0.01;79.87;102186.84;94233;1195;82051;-67
2021/10/10 03:31:07;;;;;;;64.90;38.20;;;;;;;-0.03;79.96;102186.87;94241;1196;97573;-68
2021/10/10 03:33:14;;;;;;;64.50;38.80;;;;;;;-0.05;79.89;102183.98;94268;1196;85465;-69
2021/10/10 03:35:22;;;;;;;59.90;36.40;;;;;;;-0.08;79.79;102183.94;94210;1195;94019;-69
2021/10/10 03:37:30;;;;;;;62.80;38.00;;;;;;;-0.12;79.89;102182.72;94204;1195;77481;-67
2021/10/10 03:39:40;;;;;;;62.60;38.00;;;;;;;-0.14;79.97;102178.41;94224;1196;82148;-69
2021/10/10 03:41:47;;;;;;;63.50;38.40;;;;;;;-0.16;79.96;102176.04;94223;1195;98069;-67
2021/10/10 03:43:55;;;;;;;58.60;37.30;;;;;;;-0.17;80.07;102172.58;94233;1195;86438;-68
2021/10/10 03:46:02;;;;;;;60.20;37.20;;;;;;;-0.19;79.91;102172.84;94140;1195;95778;-64
2021/10/10 03:48:10;;;;;;;60.80;36.50;;;;;;;-0.20;79.92;102172.20;94220;1196;78709;-68
2021/10/10 03:50:17;;;;;;;56.40;36.80;;;;;;;-0.23;80.06;102170.20;94290;1191;80500;-64
2021/10/10 03:52:25;;;;;;;61.40;38.70;;;;;;;-0.26;79.92;102167.55;94222;1195;97842;-68
2021/10/10 03:56:58;;;;;;;63.00;37.70;;;;;;;-0.30;80.12;102160.66;94041;1195;93847;-67
2021/10/10 03:59:06;;;;;;;63.00;38.10;;;;;;;-0.30;80.00;102156.75;94225;1195;78231;-67
2021/10/10 04:01:13;;;;;;;59.20;37.30;;;;;;;-0.29;80.06;102152.09;94252;1195;79995;-67
2021/10/10 04:03:24;;;;;;;61.90;36.00;;;;;;;-0.29;79.93;102156.74;94240;1196;97720;-68
2021/10/10 04:05:41;;;;;;;63.20;38.00;;;;;;;-0.32;80.02;102153.32;94223;1195;88100;-69
2021/10/10 04:07:49;;;;;;;62.20;36.50;;;;;;;-0.33;80.14;102151.06;94199;1195;93854;-66
2021/10/10 04:09:57;;;;;;;59.10;39.40;;;;;;;-0.34;80.03;102155.02;94224;1196;80786;-66
2021/10/10 04:12:05;;;;;;;56.90;36.60;;;;;;;-0.36;80.21;102157.76;94201;1195;81740;-67
2021/10/10 04:14:13;;;;;;;60.30;37.20;;;;;;;-0.38;80.23;102158.41;94202;1195;96782;-66
2021/10/10 04:16:20;;;;;;;62.30;38.30;;;;;;;-0.42;80.19;102159.64;94194;1194;86990;-68
2021/10/10 04:18:28;;;;;;;65.10;39.40;;;;;;;-0.44;80.19;102161.02;94220;1196;94062;-67
2021/10/10 04:20:35;;;;;;;62.90;36.90;;;;;;;-0.47;80.06;102155.86;94187;1196;80531;-68
2021/10/10 04:22:47;;;;;;;62.70;37.20;;;;;;;-0.48;80.18;102157.50;94187;1195;81423;-67
2021/10/10 04:24:54;;;;;;;57.90;35.70;;;;;;;-0.49;80.06;102162.48;94223;1195;97856;-68
2021/10/10 04:27:01;;;;;;;58.80;35.60;;;;;;;-0.51;80.24;102156.94;94245;1195;88348;-67
2021/10/10 04:29:09;;;;;;;54.10;35.20;;;;;;;-0.52;80.48;102156.83;94205;1196;95090;-69
2021/10/10 04:31:18;;;;;;;60.80;36.10;;;;;;;-0.53;80.30;102156.13;94186;1194;80544;-68
2021/10/10 04:33:26;;;;;;;60.20;35.80;;;;;;;-0.54;80.43;102159.02;94287;1194;80663;-69
2021/10/10 04:35:36;;;;;;;65.10;34.90;;;;;;;-0.55;80.45;102159.45;94189;1195;97751;-67
2021/10/10 04:37:44;;;;;;;56.10;35.70;;;;;;;-0.55;80.47;102162.30;94186;1195;87997;-69
2021/10/10 04:39:55;;;;;;;54.90;34.40;;;;;;;-0.55;80.37;102163.68;94214;1195;95642;-66
2021/10/10 04:42:05;;;;;;;54.50;34.30;;;;;;;-0.55;80.68;102161.23;94214;1197;78315;-66
2021/10/10 04:44:12;;;;;;;55.80;34.60;;;;;;;-0.56;80.32;102159.84;94228;1196;82098;-66
2021/10/10 04:46:23;;;;;;;55.60;33.20;;;;;;;-0.57;80.29;102161.48;94177;1195;98051;-67
2021/10/10 04:48:30;;;;;;;58.90;35.00;;;;;;;-0.60;80.19;102162.51;94273;1195;87254;-71
2021/10/10 04:50:38;;;;;;;58.50;34.10;;;;;;;-0.61;80.26;102159.36;94196;1195;94364;-67
2021/10/10 04:52:45;;;;;;;55.90;34.40;;;;;;;-0.62;80.30;102156.58;94213;1195;78471;-67
2021/10/10 04:54:53;;;;;;;55.10;33.30;;;;;;;-0.64;80.51;102158.95;94213;1195;80797;-67
2021/10/10 04:57:00;;;;;;;55.80;34.40;;;;;;;-0.65;80.52;102154.44;94208;1196;98553;-68
2021/10/10 04:59:08;;;;;;;62.60;34.70;;;;;;;-0.69;80.52;102156.02;94201;1196;86543;-67
2021/10/10 05:01:15;;;;;;;55.00;33.20;;;;;;;-0.71;80.44;102154.02;94201;1196;94200;-69
2021/10/10 05:03:26;;;;;;;55.10;31.60;;;;;;;-0.72;80.50;102155.29;94220;1195;80587;-69
2021/10/10 05:05:36;;;;;;;56.90;32.60;;;;;;;-0.71;80.59;102154.89;94208;1195;82467;-69
2021/10/10 05:07:47;;;;;;;60.00;35.50;;;;;;;-0.69;80.50;102155.34;94234;1195;98066;-70
2021/10/10 05:09:54;;;;;;;54.00;31.70;;;;;;;-0.66;80.61;102155.73;94228;1195;87352;-66
2021/10/10 05:12:02;;;;;;;59.50;33.30;;;;;;;-0.64;80.58;102155.63;94218;1195;94023;-67
2021/10/10 05:14:09;;;;;;;59.00;34.80;;;;;;;-0.62;80.49;102153.40;94221;1196;80431;-67
2021/10/10 05:16:17;;;;;;;54.50;32.80;;;;;;;-0.62;80.45;102153.05;94166;1195;82019;-68
2021/10/10 05:18:24;;;;;;;54.10;31.60;;;;;;;-0.61;80.47;102150.31;94235;1195;96025;-69
2021/10/10 05:20:31;;;;;;;54.40;32.20;;;;;;;-0.60;80.64;102151.32;94232;1195;86627;-69
2021/10/10 05:22:39;;;;;;;50.00;32.10;;;;;;;-0.57;80.63;102150.33;94214;1195;95350;-69
2021/10/10 05:24:46;;;;;;;54.30;33.30;;;;;;;-0.55;80.66;102147.92;94188;1195;81205;-67
2021/10/10 05:26:54;;;;;;;56.70;33.70;;;;;;;-0.50;80.56;102147.48;94197;1195;81882;-66
2021/10/10 05:29:01;;;;;;;51.30;32.30;;;;;;;-0.46;80.64;102145.91;94233;1196;96548;-66
2021/10/10 05:31:08;;;;;;;53.20;33.60;;;;;;;-0.42;80.79;102143.70;94249;1195;87024;-67
2021/10/10 05:33:19;;;;;;;53.80;33.10;;;;;;;-0.36;80.91;102143.44;94202;1196;94623;-67
2021/10/10 05:35:26;;;;;;;52.80;32.60;;;;;;;-0.30;81.03;102141.20;94195;1195;78903;-67
2021/10/10 05:37:34;;;;;;;58.90;33.70;;;;;;;-0.22;81.02;102140.42;94238;1195;81698;-66
2021/10/10 05:39:41;;;;;;;56.60;32.80;;;;;;;0.14;81.03;102137.29;94219;1196;98759;-68
2021/10/10 05:41:52;;;;;;;54.70;33.70;;;;;;;0.97;81.27;102131.15;94161;1195;87995;-68
2021/10/10 05:44:03;;;;;;;53.60;33.20;;;;;;;1.32;80.76;102134.30;94189;1196;94091;-68
2021/10/10 05:46:14;;;;;;;52.60;33.10;;;;;;;1.32;80.33;102132.52;94171;1195;77278;-67
2021/10/10 05:48:21;;;;;;;53.50;33.20;;;;;;;1.27;80.10;102131.73;94234;1186;82773;-69
2021/10/10 05:50:29;;;;;;;56.60;33.50;;;;;;;1.15;79.99;102134.92;94200;1195;98349;-67
2021/10/10 05:52:39;;;;;;;53.70;34.10;;;;;;;1.08;79.90;102135.67;94169;1195;86659;-69
2021/10/10 05:54:46;;;;;;;52.40;32.00;;;;;;;1.03;80.01;102134.16;94214;1194;94957;-67
2021/10/10 05:56:54;;;;;;;55.20;35.00;;;;;;;1.01;79.96;102135.36;94212;1195;79219;-68
2021/10/10 05:59:05;;;;;;;51.00;33.90;;;;;;;1.13;79.98;102137.70;94248;1195;81851;-67
2021/10/10 06:01:12;;;;;;;57.50;34.30;;;;;;;1.50;80.19;102138.36;94241;1196;98864;-66
2021/10/10 06:03:23;;;;;;;56.40;34.80;;;;;;;1.78;79.72;102135.98;94263;1195;87829;-67
2021/10/10 06:05:30;;;;;;;54.10;33.60;;;;;;;1.87;79.65;102136.05;94214;1196;94450;-68
2021/10/10 06:07:38;;;;;;;53.10;35.50;;;;;;;1.95;79.58;102131.63;94229;1196;78693;-68
2021/10/10 06:09:45;;;;;;;50.10;33.00;;;;;;;2.29;79.40;102136.79;94215;1195;81896;-66
2021/10/10 06:11:53;;;;;;;54.80;33.20;;;;;;;2.41;79.05;102141.75;94207;1194;98025;-67
2021/10/10 06:14:01;;;;;;;48.20;32.70;;;;;;;2.39;79.05;102144.15;94232;1195;88271;-66
2021/10/10 06:16:10;;;;;;;49.10;32.80;;;;;;;2.40;79.15;102140.19;94220;1195;93854;-67
2021/10/10 06:18:17;;;;;;;48.80;31.90;;;;;;;2.43;79.32;102138.95;94193;1194;79213;-68
2021/10/10 06:20:25;;;;;;;53.10;34.20;;;;;;;2.54;79.29;102139.69;94225;1196;82330;-66
2021/10/10 06:22:33;;;;;;;54.40;34.70;;;;;;;2.73;78.88;102143.81;94238;1195;98841;-66
2021/10/10 06:24:40;;;;;;;53.80;35.70;;;;;;;3.02;78.55;102142.33;94217;1195;87426;-66
2021/10/10 06:26:48;;;;;;;55.60;33.20;;;;;;;3.07;78.31;102140.55;94211;1196;93895;-68
2021/10/10 06:28:55;;;;;;;56.90;34.00;;;;;;;3.10;78.38;102140.72;94205;1195;80376;-68
2021/10/10 06:31:03;;;;;;;49.40;31.20;;;;;;;3.16;78.41;102139.96;94190;1194;81819;-68
2021/10/10 06:33:10;;;;;;;44.30;31.10;;;;;;;3.21;78.51;102142.16;94243;1195;96353;-69
2021/10/10 06:35:18;;;;;;;47.10;31.00;;;;;;;3.27;78.62;102138.55;94238;1196;86524;-67
2021/10/10 06:37:25;;;;;;;48.20;31.70;;;;;;;3.34;78.62;102134.34;94182;1195;94130;-68
2021/10/10 06:39:34;;;;;;;45.10;31.80;;;;;;;3.43;78.55;102134.98;94196;1195;78256;-69
2021/10/10 06:41:42;;;;;;;49.20;33.20;;;;;;;3.53;78.68;102130.36;94230;1195;81761;-68
2021/10/10 06:43:49;;;;;;;48.80;31.60;;;;;;;3.67;78.75;102132.83;94210;1195;97603;-68
2021/10/10 06:45:56;;;;;;;36.70;26.10;;;;;;;4.32;78.83;102128.65;94175;1195;87938;-68
2021/10/10 06:48:04;;;;;;;37.60;24.70;;;;;;;5.05;78.71;102127.71;93970;1195;95211;-70
2021/10/10 06:50:13;;;;;;;36.40;23.60;;;;;;;5.24;78.68;102128.91;94213;1195;78561;-69
2021/10/10 06:52:20;;;;;;;33.10;24.40;;;;;;;5.39;78.67;102128.18;94263;1194;80501;-68
2021/10/10 06:54:30;;;;;;;33.60;23.10;;;;;;;5.50;78.42;102129.14;94225;1195;98570;-69
2021/10/10 06:56:38;;;;;;;30.80;22.30;;;;;;;5.60;78.01;102130.23;94196;1195;88501;-70
2021/10/10 06:58:45;;;;;;;31.60;21.10;;;;;;;5.62;77.64;102129.16;94221;1195;94128;-70
2021/10/10 07:00:53;;;;;;;31.70;21.10;;;;;;;5.63;77.22;102129.44;94191;1195;79219;-66
2021/10/10 07:03:00;;;;;;;36.60;24.40;;;;;;;5.68;77.02;102128.33;94245;1194;80898;-65
2021/10/10 07:05:10;;;;;;;32.70;21.00;;;;;;;5.78;76.91;102129.38;94178;1196;98292;-68
2021/10/10 07:07:17;;;;;;;30.40;21.60;;;;;;;5.85;76.82;102126.31;94247;1195;89381;-68
2021/10/10 07:09:25;;;;;;;33.00;21.80;;;;;;;5.98;76.68;102122.85;94249;1195;93286;-69
2021/10/10 07:11:32;;;;;;;31.40;21.90;;;;;;;6.10;76.48;102124.23;94218;1195;77837;-69
2021/10/10 07:13:40;;;;;;;29.20;20.50;;;;;;;6.21;76.23;102124.61;94251;1195;81564;-68
2021/10/10 07:15:47;;;;;;;27.90;19.70;;;;;;;6.33;75.94;102121.70;94217;1195;97205;-66
2021/10/10 07:17:59;;;;;;;28.40;19.60;;;;;;;6.47;75.84;102123.94;94211;1194;87634;-67
2021/10/10 07:20:11;;;;;;;27.30;19.40;;;;;;;6.63;75.49;102123.27;94220;1194;93979;-69
2021/10/10 07:22:29;;;;;;;29.40;20.10;;;;;;;6.85;75.12;102123.08;94237;1196;77137;-71
2021/10/10 07:24:55;;;;;;;26.40;19.50;;;;;;;7.10;75.27;102124.27;94223;1194;82443;-70
2021/10/10 07:27:06;;;;;;;28.20;19.20;;;;;;;7.44;75.27;102119.25;94220;1196;98461;-70
2021/10/10 07:29:13;;;;;;;29.90;19.40;;;;;;;7.75;74.82;102114.86;94216;1196;87708;-71
2021/10/10 07:31:21;;;;;;;23.00;17.50;;;;;;;8.10;73.64;102117.53;94207;1195;93401;-70
2021/10/10 07:33:29;;;;;;;26.00;18.50;;;;;;;8.84;73.80;102114.85;94221;1196;78143;-70
2021/10/10 07:35:39;;;;;;;23.90;17.40;;;;;;;9.78;73.81;102114.28;94220;1196;80523;-70
2021/10/10 07:37:46;;;;;;;21.80;16.00;;;;;;;10.65;72.74;102114.48;94225;1195;98019;-70
2021/10/10 07:39:54;;;;;;;26.10;17.60;;;;;;;10.77;70.91;102112.74;94230;1195;87598;-69
2021/10/10 07:42:05;;;;;;;24.40;17.90;;;;;;;10.68;70.52;102111.76;94239;1195;93745;-69
2021/10/10 07:44:13;;;;;;;23.00;16.80;;;;;;;10.78;69.75;102115.13;94225;1194;80208;-69
2021/10/10 07:46:22;;;;;;;23.40;18.30;;;;;;;10.82;69.09;102119.04;94217;1195;82195;-67
2021/10/10 07:48:29;;;;;;;23.70;18.60;;;;;;;10.63;68.39;102118.96;94228;1194;98114;-62
2021/10/10 07:50:37;;;;;;;21.90;16.80;;;;;;;10.48;67.93;102121.67;94191;1191;86093;-71
2021/10/10 07:52:45;;;;;;;24.50;17.00;;;;;;;10.47;67.50;102121.76;94189;1194;94296;-73
2021/10/10 07:54:53;;;;;;;22.30;17.40;;;;;;;10.49;67.33;102119.44;94156;1194;79522;-69
2021/10/10 07:57:00;;;;;;;23.80;16.60;;;;;;;11.55;67.44;102114.81;94161;1196;82303;-67
2021/10/10 07:59:08;;;;;;;21.20;15.90;;;;;;;13.25;65.97;102112.59;94177;1194;98414;-68
2021/10/10 08:01:15;;;;;;;21.30;15.80;;;;;;;15.19;63.93;102109.27;94175;1195;87762;-68
2021/10/10 08:03:23;;;;;;;22.40;15.80;;;;;;;16.89;61.53;102105.20;94202;1195;93561;-68
2021/10/10 08:05:37;;;;;;;18.90;15.00;;;;;;;18.31;59.37;102102.09;94190;1196;79451;-67
2021/10/10 08:07:45;;;;;;;16.50;14.00;;;;;;;19.72;56.81;102103.33;94200;1195;81929;-68
2021/10/10 08:09:53;;;;;;;18.60;13.30;;;;;;;20.10;53.45;102098.59;94242;1195;98528;-67
2021/10/10 08:12:00;;;;;;;15.60;13.50;;;;;;;19.88;51.98;102102.30;94221;1195;87092;-67
2021/10/10 08:14:08;;;;;;;19.30;13.50;;;;;;;19.28;51.41;102103.35;94192;1195;94586;-68
2021/10/10 08:16:15;;;;;;;18.90;14.40;;;;;;;18.76;50.82;102102.42;94159;1195;80163;-72
2021/10/10 08:18:25;;;;;;;18.40;13.90;;;;;;;18.80;50.35;102098.75;94312;1195;81420;-72
2021/10/10 08:20:33;;;;;;;18.70;13.20;;;;;;;19.27;48.72;102096.42;94182;1194;97475;-71
2021/10/10 08:22:41;;;;;;;17.90;14.00;;;;;;;19.86;47.14;102091.45;94249;1196;87630;-72
2021/10/10 08:24:49;;;;;;;15.30;12.60;;;;;;;19.93;46.84;102092.10;94214;1196;94154;-71
2021/10/10 08:26:56;;;;;;;16.80;13.10;;;;;;;19.41;45.31;102092.86;93999;1195;78341;-70
2021/10/10 08:29:05;;;;;;;15.50;12.30;;;;;;;18.68;45.32;102095.02;94243;1194;80608;-75
2021/10/10 08:31:15;;;;;;;16.30;12.20;;;;;;;18.05;45.86;102094.79;93992;1195;98409;-67
2021/10/10 08:33:24;;;;;;;15.00;12.60;;;;;;;17.66;45.38;102095.15;94221;1194;88400;-66
2021/10/10 08:35:35;;;;;;;15.00;12.60;;;;;;;17.74;44.54;102091.20;94198;1194;92627;-68
2021/10/10 08:37:45;;;;;;;14.40;12.90;;;;;;;18.01;44.56;102090.78;94291;1195;78902;-67
2021/10/10 08:39:53;;;;;;;14.50;13.00;;;;;;;18.66;44.77;102089.23;94238;1195;82176;-77
2021/10/10 08:42:03;;;;;;;14.10;12.60;;;;;;;19.34;44.72;102089.42;94203;1195;97042;-76
2021/10/10 08:44:17;;;;;;;17.60;15.10;;;;;;;19.85;43.86;102090.36;94222;1195;87903;-76
2021/10/10 08:46:26;;;;;;;15.90;14.10;;;;;;;20.03;43.27;102082.14;94185;1195;94385;-66
2021/10/10 08:48:34;;;;;;;17.40;15.30;;;;;;;20.27;42.42;102078.45;94244;1196;78559;-68
2021/10/10 08:50:44;;;;;;;15.30;11.90;;;;;;;21.04;42.37;102079.61;94255;1195;80460;-68
2021/10/10 08:52:58;;;;;;;15.00;11.50;;;;;;;21.69;41.59;102074.75;94246;1195;98103;-66
2021/10/10 08:55:08;;;;;;;14.60;11.70;;;;;;;21.73;40.31;102070.88;94217;1196;88231;-67
2021/10/10 08:57:16;;;;;;;12.20;10.80;;;;;;;22.10;40.09;102070.71;94245;1195;94138;-68
2021/10/10 08:59:25;;;;;;;11.50;10.20;;;;;;;22.33;39.30;102068.48;94167;1196;79808;-67
2021/10/10 09:01:37;;;;;;;12.80;10.40;;;;;;;22.54;38.92;102065.85;94179;1194;81361;-66
2021/10/10 09:03:49;;;;;;;13.10;11.10;;;;;;;22.75;38.36;102066.84;94036;1195;96784;-67
2021/10/10 09:05:57;;;;;;;11.20;9.60;;;;;;;22.90;36.90;102065.62;94254;1195;86474;-67
2021/10/10 09:08:05;;;;;;;11.60;9.20;;;;;;;23.01;36.96;102066.25;94138;1194;93379;-60
2021/10/10 09:10:27;;;;;;;9.60;8.60;;;;;;;23.12;35.98;102064.74;94211;1194;78103;-66
2021/10/10 09:12:35;;;;;;;10.20;8.80;;;;;;;23.46;36.14;102061.12;94245;1195;82149;-67
2021/10/10 09:14:51;;;;;;;10.70;9.30;;;;;;;23.80;35.95;102060.11;94199;1194;97642;-70
2021/10/10 09:17:14;;;;;;;10.70;9.50;;;;;;;23.70;34.66;102063.27;94186;1194;86613;-68
2021/10/10 09:19:31;;;;;;;9.70;8.60;;;;;;;23.47;34.49;102059.12;94258;1195;95186;-70
2021/10/10 09:21:39;;;;;;;13.40;9.40;;;;;;;23.63;34.56;102052.77;94192;1195;78738;-74
2021/10/10 09:23:50;;;;;;;12.00;9.50;;;;;;;23.80;34.26;102053.27;94219;1194;81848;-75
2021/10/10 09:26:04;;;;;;;10.60;8.60;;;;;;;23.28;32.92;102057.57;94200;1195;97265;-63
2021/10/10 09:28:27;;;;;;;9.70;8.20;;;;;;;23.20;33.32;102052.20;94207;1196;87993;-60
2021/10/10 09:30:53;;;;;;;9.60;8.30;;;;;;;23.03;32.14;102050.27;94215;1195;94775;-72
2021/10/10 09:33:04;;;;;;;9.80;8.20;;;;;;;22.78;32.57;102049.77;94157;1195;78768;-70
2021/10/10 09:35:24;;;;;;;8.40;7.00;;;;;;;22.70;32.68;102049.35;94206;1196;81657;-73
2021/10/10 09:37:42;;;;;;;7.10;6.40;;;;;;;22.48;32.21;102047.61;94199;1195;96902;-71
2021/10/10 09:39:58;;;;;;;6.90;5.40;;;;;;;22.11;31.59;102046.31;94208;1195;87349;-72
2021/10/10 09:42:08;;;;;;;7.10;5.90;;;;;;;21.80;32.09;102044.04;94237;1195;94482;-64
2021/10/10 09:44:20;;;;;;;9.40;6.00;;;;;;;21.87;32.16;102044.85;94197;1195;78902;-69
2021/10/10 09:46:29;;;;;;;8.30;7.00;;;;;;;21.54;31.47;102046.35;94172;1195;81833;-63
2021/10/10 09:48:39;;;;;;;7.90;6.50;;;;;;;21.45;31.67;102043.42;94105;1195;98294;-65
2021/10/10 09:50:52;;;;;;;8.40;6.80;;;;;;;20.96;31.79;102040.36;93953;1195;88876;-68
2021/10/10 09:53:09;;;;;;;8.10;5.80;;;;;;;20.18;32.47;102038.38;93974;1195;93778;-67